createdAt,value
2022-08-10T00:00:01.371Z,41.82
2022-08-10T00:02:52.181Z,43.13
2022-08-10T00:05:43.735Z,43.81
2022-08-10T00:08:39.244Z,43.88
2022-08-10T00:11:25.839Z,44.30
2022-08-10T00:14:12.064Z,42.78
2022-08-10T00:16:58.358Z,42.18
2022-08-10T00:20:02.567Z,42.44
2022-08-10T00:22:53.069Z,41.98
2022-08-10T00:25:43.985Z,42.01
2022-08-10T00:28:30.685Z,42.37
2022-08-10T00:31:16.737Z,42.73
2022-08-10T00:34:03.108Z,42.46
2022-08-10T00:36:49.440Z,42.09
2022-08-10T00:39:36.061Z,42.82
2022-08-10T00:42:23.604Z,42.29
2022-08-10T00:45:10.318Z,43.55
2022-08-10T00:47:56.429Z,44.16
2022-08-10T00:50:42.777Z,46.18
2022-08-10T00:53:29.040Z,46.07
2022-08-10T00:57:12.635Z,45.54
2022-08-10T00:59:21.526Z,47.82
2022-08-10T01:02:11.856Z,47.02
2022-08-10T01:05:03.429Z,44.56
2022-08-10T01:08:40.574Z,45.74
2022-08-10T01:12:38.864Z,45.53
2022-08-10T01:15:04.015Z,44.77
2022-08-10T01:18:37.792Z,45.94
2022-08-10T01:22:01.671Z,46.38
2022-08-10T01:25:11.737Z,46.12
2022-08-10T01:28:04.126Z,46.92
2022-08-10T01:30:54.173Z,44.97
2022-08-10T01:33:58.549Z,45.90
2022-08-10T01:36:51.331Z,45.76
2022-08-10T01:39:40.380Z,45.00
2022-08-10T01:42:29.950Z,46.06
2022-08-10T01:45:17.487Z,46.80
2022-08-10T01:48:23.690Z,46.68
2022-08-10T01:51:17.818Z,45.24
2022-08-10T01:54:12.753Z,46.48
2022-08-10T01:57:01.954Z,47.39
2022-08-10T01:59:58.579Z,48.90
2022-08-10T02:02:52.522Z,46.54
2022-08-10T02:05:40.767Z,46.90
2022-08-10T02:08:27.727Z,46.35
2022-08-10T02:11:14.918Z,47.77
2022-08-10T02:14:02.018Z,47.71
2022-08-10T02:16:51.273Z,47.24
2022-08-10T02:19:39.642Z,48.08
2022-08-10T02:22:37.565Z,50.09
2022-08-10T02:25:42.166Z,51.16
2022-08-10T02:28:32.551Z,47.86
2022-08-10T02:31:23.162Z,46.51
2022-08-10T02:34:13.918Z,49.49
2022-08-10T02:37:03.571Z,47.87
2022-08-10T02:39:57.735Z,49.39
2022-08-10T02:45:24.119Z,50.45
2022-08-10T02:46:07.250Z,50.50
2022-08-10T02:49:02.296Z,47.53
2022-08-10T02:52:07.657Z,47.14
2022-08-10T02:55:17.956Z,47.57
2022-08-10T02:58:16.868Z,47.42
2022-08-10T03:01:09.479Z,47.57
2022-08-10T03:04:07.273Z,49.24
2022-08-10T03:06:56.800Z,49.44
2022-08-10T03:09:43.528Z,47.58
2022-08-10T03:12:37.062Z,46.97
2022-08-10T03:15:27.939Z,48.21
2022-08-10T03:18:14.929Z,48.37
2022-08-10T03:21:01.868Z,48.67
2022-08-10T03:23:48.355Z,47.90
2022-08-10T03:26:34.865Z,48.09
2022-08-10T03:29:22.110Z,48.35
2022-08-10T03:32:09.665Z,49.15
2022-08-10T03:34:56.612Z,51.39
2022-08-10T03:37:42.931Z,50.06
2022-08-10T03:40:44.871Z,51.36
2022-08-10T03:43:34.106Z,51.96
2022-08-10T03:46:23.740Z,52.27
2022-08-10T03:49:10.690Z,53.29
2022-08-10T03:51:58.038Z,50.00
2022-08-10T03:54:46.891Z,50.51
2022-08-10T03:57:33.355Z,50.07
2022-08-10T04:00:19.926Z,48.48
2022-08-10T04:03:06.747Z,49.39
2022-08-10T04:05:52.887Z,50.67
2022-08-10T04:08:43.114Z,49.66
2022-08-10T04:11:29.256Z,48.01
2022-08-10T04:14:38.773Z,48.69
2022-08-10T04:18:01.144Z,49.41
2022-08-10T04:20:38.792Z,49.43
2022-08-10T04:23:30.823Z,49.90
2022-08-10T04:26:17.811Z,48.64
2022-08-10T04:29:04.170Z,49.94
2022-08-10T04:31:50.613Z,51.11
2022-08-10T04:34:39.777Z,50.21
2022-08-10T04:37:27.199Z,50.38
2022-08-10T04:40:25.221Z,48.47
2022-08-10T04:43:16.722Z,48.97
2022-08-10T04:46:03.025Z,48.98
2022-08-10T04:49:01.965Z,48.26
2022-08-10T04:51:48.576Z,48.94
2022-08-10T04:54:35.013Z,48.67
2022-08-10T04:57:21.418Z,47.69
2022-08-10T05:00:18.900Z,47.94
2022-08-10T05:03:05.250Z,47.06
2022-08-10T05:05:52.879Z,47.19
2022-08-10T05:08:41.691Z,47.60
2022-08-10T05:11:28.029Z,48.05
2022-08-10T05:14:14.383Z,47.12
2022-08-10T05:17:00.817Z,47.35
2022-08-10T05:20:04.499Z,47.85
2022-08-10T05:22:52.427Z,47.97
2022-08-10T05:25:38.705Z,46.07
2022-08-10T05:28:25.113Z,46.18
2022-08-10T05:31:22.595Z,46.52
2022-08-10T05:34:20.846Z,45.63
2022-08-10T05:38:10.473Z,45.31
2022-08-10T05:40:17.762Z,45.18
2022-08-10T05:43:04.528Z,44.98
2022-08-10T05:46:17.341Z,44.74
2022-08-10T05:49:00.964Z,44.98
2022-08-10T05:51:48.012Z,44.60
2022-08-10T05:54:34.401Z,43.88
2022-08-10T05:57:23.465Z,44.02
2022-08-10T06:00:34.079Z,44.31
2022-08-10T06:03:23.908Z,43.47
2022-08-10T06:06:11.175Z,42.78
2022-08-10T06:08:59.426Z,43.34
2022-08-10T06:12:27.317Z,42.10
2022-08-10T06:15:05.235Z,41.89
2022-08-10T06:17:59.088Z,42.23
2022-08-10T06:20:50.035Z,41.81
2022-08-10T06:23:37.153Z,41.51
2022-08-10T06:26:23.342Z,41.74
2022-08-10T06:29:13.862Z,41.33
2022-08-10T06:32:01.801Z,40.49
2022-08-10T06:34:54.627Z,41.04
2022-08-10T06:37:41.285Z,40.96
2022-08-10T06:40:30.261Z,41.59
2022-08-10T06:43:19.080Z,40.62
2022-08-10T06:46:08.861Z,41.15
2022-08-10T06:49:00.494Z,40.65
2022-08-10T06:51:46.720Z,39.85
2022-08-10T06:54:44.002Z,41.02
2022-08-10T06:57:32.988Z,41.85
2022-08-10T07:00:20.375Z,43.02
2022-08-10T07:03:11.185Z,41.45
2022-08-10T07:05:58.205Z,40.90
2022-08-10T07:08:45.254Z,41.23
2022-08-10T07:11:32.268Z,40.72
2022-08-10T07:14:18.952Z,39.86
2022-08-10T07:17:06.469Z,38.89
2022-08-10T07:19:55.549Z,39.54
2022-08-10T07:23:08.361Z,40.15
2022-08-10T07:25:49.580Z,40.30
2022-08-10T07:28:36.052Z,40.66
2022-08-10T07:31:35.435Z,40.16
2022-08-10T07:34:30.301Z,39.79
2022-08-10T07:37:17.055Z,39.32
2022-08-10T07:40:05.292Z,38.76
2022-08-10T07:42:54.060Z,38.26
2022-08-10T07:45:40.714Z,38.13
2022-08-10T07:48:29.764Z,37.99
2022-08-10T07:51:19.118Z,38.92
2022-08-10T07:54:08.650Z,39.12
2022-08-10T07:56:59.897Z,38.52
2022-08-10T07:59:48.673Z,37.50
2022-08-10T08:02:54.915Z,36.31
2022-08-10T08:05:59.232Z,37.40
2022-08-10T08:08:49.117Z,38.13
2022-08-10T08:11:37.152Z,36.88
2022-08-10T08:14:23.910Z,36.07
2022-08-10T08:17:11.198Z,36.48
2022-08-10T08:19:59.082Z,34.72
2022-08-10T08:24:10.787Z,34.41
2022-08-10T08:25:55.734Z,34.64
2022-08-10T08:28:42.925Z,34.09
2022-08-10T08:31:29.943Z,32.77
2022-08-10T08:34:17.483Z,34.43
2022-08-10T08:37:04.669Z,33.69
2022-08-10T08:39:50.968Z,33.53
2022-08-10T08:43:05.798Z,33.18
2022-08-10T08:46:14.481Z,32.23
2022-08-10T08:50:04.494Z,32.14
2022-08-10T08:52:31.518Z,32.58
2022-08-10T08:56:05.028Z,31.72
2022-08-10T08:59:15.046Z,32.34
2022-08-10T09:02:18.174Z,32.47
2022-08-10T09:05:23.558Z,33.11
2022-08-10T09:08:33.793Z,33.15
2022-08-10T09:11:51.691Z,31.03
2022-08-10T09:14:41.904Z,31.11
2022-08-10T09:17:52.403Z,31.81
2022-08-10T09:21:00.163Z,31.58
2022-08-10T09:24:02.140Z,31.03
2022-08-10T09:26:53.822Z,29.58
2022-08-10T09:29:47.554Z,29.85
2022-08-10T09:36:15.667Z,29.88
2022-08-10T09:36:21.773Z,30.20
2022-08-10T09:40:56.531Z,29.67
2022-08-10T09:42:49.736Z,28.80
2022-08-10T09:46:14.396Z,30.12
2022-08-10T09:49:16.366Z,29.72
2022-08-10T09:52:25.323Z,27.85
2022-08-10T09:56:17.694Z,27.49
2022-08-10T09:59:47.305Z,27.83
2022-08-10T10:02:13.495Z,28.12
2022-08-10T10:05:11.115Z,28.77
2022-08-10T10:08:13.591Z,29.56
2022-08-10T10:11:10.099Z,28.12
2022-08-10T10:14:02.634Z,27.96
2022-08-10T10:17:12.884Z,28.66
2022-08-10T10:20:24.420Z,28.29
2022-08-10T10:23:36.836Z,28.29
2022-08-10T10:26:32.953Z,28.54
2022-08-10T10:29:56.200Z,26.67
2022-08-10T10:33:03.498Z,26.02
2022-08-10T10:35:54.149Z,25.84
2022-08-10T10:38:41.745Z,25.50
2022-08-10T10:41:56.243Z,25.92
2022-08-10T10:45:22.104Z,24.87
2022-08-10T10:48:23.978Z,24.27
2022-08-10T10:51:15.527Z,24.20
2022-08-10T10:54:07.907Z,25.67
2022-08-10T10:57:19.733Z,25.10
2022-08-10T11:00:09.894Z,23.92
2022-08-10T11:02:59.172Z,24.45
2022-08-10T11:06:20.682Z,22.46
2022-08-10T11:10:05.378Z,21.92
2022-08-10T11:12:46.857Z,21.33
2022-08-10T11:15:42.736Z,22.29
2022-08-10T11:18:36.976Z,23.25
2022-08-10T11:21:50.826Z,25.21
2022-08-10T11:25:28.266Z,24.45
2022-08-10T11:28:29.634Z,23.71
2022-08-10T11:31:15.732Z,22.72
2022-08-10T11:34:48.586Z,23.11
2022-08-10T11:37:28.845Z,22.08
2022-08-10T11:40:52.287Z,22.78
2022-08-10T11:43:42.525Z,21.05
2022-08-10T11:46:32.213Z,20.71
2022-08-10T11:49:25.083Z,22.76
2022-08-10T11:52:20.321Z,22.78
2022-08-10T11:55:33.390Z,22.86
2022-08-10T11:58:41.041Z,21.22
2022-08-10T12:01:31.214Z,21.26
2022-08-10T12:04:19.003Z,20.65
2022-08-10T12:08:54.898Z,20.90
2022-08-10T12:10:14.287Z,19.82
2022-08-10T12:13:03.320Z,19.55
2022-08-10T12:16:05.389Z,19.65
2022-08-10T12:18:57.087Z,19.68
2022-08-10T12:21:48.199Z,19.35
2022-08-10T12:24:50.558Z,18.98
2022-08-10T12:27:40.629Z,18.17
2022-08-10T12:30:29.893Z,18.03
2022-08-10T12:33:21.907Z,18.50
2022-08-10T12:36:23.881Z,20.79
2022-08-10T12:39:18.654Z,18.87
2022-08-10T12:42:10.871Z,19.42
2022-08-10T12:45:42.578Z,19.29
2022-08-10T12:48:37.081Z,18.04
2022-08-10T12:51:27.643Z,17.91
2022-08-10T12:54:31.938Z,18.52
2022-08-10T12:57:22.517Z,18.71
2022-08-10T13:00:10.528Z,17.65
2022-08-10T13:03:06.209Z,17.84
2022-08-10T13:06:01.792Z,17.46
2022-08-10T13:09:08.824Z,18.18
2022-08-10T13:12:36.687Z,19.38
2022-08-10T13:15:43.168Z,19.53
2022-08-10T13:18:28.435Z,20.85
2022-08-10T13:21:19.655Z,18.97
2022-08-10T13:24:13.258Z,18.49
2022-08-10T13:27:25.833Z,19.28
2022-08-10T13:30:13.887Z,18.30
2022-08-10T13:33:00.422Z,19.25
2022-08-10T13:35:47.486Z,18.57
2022-08-10T13:38:43.987Z,20.40
2022-08-10T13:41:41.492Z,20.35
2022-08-10T13:44:31.262Z,18.99
2022-08-10T13:47:18.380Z,18.66
2022-08-10T13:50:12.883Z,18.61
2022-08-10T13:53:01.340Z,19.33
2022-08-10T13:55:56.550Z,20.47
2022-08-10T13:58:44.142Z,20.23
2022-08-10T14:01:36.903Z,20.57
2022-08-10T14:04:23.560Z,19.80
2022-08-10T14:07:11.786Z,19.07
2022-08-10T14:10:07.009Z,18.19
2022-08-10T14:12:54.236Z,19.51
2022-08-10T14:15:41.358Z,20.50
2022-08-10T14:18:27.805Z,20.33
2022-08-10T14:21:16.772Z,18.83
2022-08-10T14:24:02.984Z,17.86
2022-08-10T14:26:50.199Z,17.86
2022-08-10T14:29:48.141Z,17.34
2022-08-10T14:32:42.530Z,17.25
2022-08-10T14:36:23.296Z,16.88
2022-08-10T14:38:37.498Z,17.41
2022-08-10T14:42:02.580Z,17.64
2022-08-10T14:45:11.302Z,17.37
2022-08-10T14:48:08.032Z,18.03
2022-08-10T14:50:58.642Z,17.18
2022-08-10T14:53:52.782Z,16.92
2022-08-10T14:56:40.578Z,16.66
2022-08-10T14:59:45.914Z,17.34
2022-08-10T15:02:53.122Z,17.15
2022-08-10T15:05:42.891Z,17.79
2022-08-10T15:08:29.872Z,18.06
2022-08-10T15:12:13.355Z,18.38
2022-08-10T15:14:41.227Z,19.13
2022-08-10T15:17:35.078Z,17.97
2022-08-10T15:20:24.525Z,18.03
2022-08-10T15:23:30.657Z,18.62
2022-08-10T15:26:18.801Z,19.25
2022-08-10T15:29:22.904Z,20.32
2022-08-10T15:32:30.386Z,19.51
2022-08-10T15:35:36.591Z,19.16
2022-08-10T15:38:35.715Z,18.57
2022-08-10T15:41:59.084Z,18.57
2022-08-10T15:44:50.028Z,18.22
2022-08-10T15:47:47.983Z,19.24
2022-08-10T15:50:41.721Z,20.04
2022-08-10T15:53:49.682Z,19.72
2022-08-10T15:56:50.002Z,20.42
2022-08-10T15:59:49.734Z,20.42
2022-08-10T16:02:53.304Z,20.95
2022-08-10T16:06:02.008Z,21.30
2022-08-10T16:08:57.029Z,19.96
2022-08-10T16:12:03.265Z,19.36
2022-08-10T16:14:49.509Z,19.79
2022-08-10T16:17:54.115Z,20.16
2022-08-10T16:20:54.940Z,20.49
2022-08-10T16:23:45.237Z,20.15
2022-08-10T16:26:52.291Z,20.43
2022-08-10T16:29:55.903Z,20.49
2022-08-10T16:32:44.977Z,20.50
2022-08-10T16:35:35.363Z,20.42
2022-08-10T16:38:22.604Z,19.74
2022-08-10T16:42:02.902Z,19.32
2022-08-10T16:44:18.383Z,19.25
2022-08-10T16:47:06.515Z,18.80
2022-08-10T16:49:55.702Z,18.46
2022-08-10T16:52:43.804Z,18.27
2022-08-10T16:55:48.566Z,17.80
2022-08-10T16:58:39.749Z,17.49
2022-08-10T17:01:27.466Z,17.79
2022-08-10T17:04:15.228Z,17.47
2022-08-10T17:07:07.298Z,18.45
2022-08-10T17:09:55.145Z,18.06
2022-08-10T17:12:41.889Z,17.73
2022-08-10T17:15:28.764Z,18.22
2022-08-10T17:18:27.530Z,18.80
2022-08-10T17:21:20.043Z,18.63
2022-08-10T17:24:07.042Z,17.81
2022-08-10T17:26:56.744Z,17.30
2022-08-10T17:29:57.185Z,18.67
2022-08-10T17:32:51.735Z,20.29
2022-08-10T17:35:38.478Z,21.73
2022-08-10T17:38:26.251Z,21.80
2022-08-10T17:41:13.460Z,21.94
2022-08-10T17:44:04.277Z,22.04
2022-08-10T17:46:50.910Z,22.10
2022-08-10T17:49:37.987Z,22.78
2022-08-10T17:52:26.418Z,22.72
2022-08-10T17:55:13.269Z,23.02
2022-08-10T17:58:02.375Z,23.54
2022-08-10T18:00:51.549Z,23.01
2022-08-10T18:03:43.770Z,23.03
2022-08-10T18:06:31.634Z,23.37
2022-08-10T18:09:25.321Z,24.45
2022-08-10T18:12:18.067Z,24.61
2022-08-10T18:15:12.115Z,23.99
2022-08-10T18:18:01.091Z,24.95
2022-08-10T18:20:52.293Z,24.62
2022-08-10T18:23:39.388Z,24.01
2022-08-10T18:26:26.665Z,24.23
2022-08-10T18:29:18.722Z,24.05
2022-08-10T18:32:06.694Z,24.15
2022-08-10T18:34:59.263Z,24.92
2022-08-10T18:37:51.048Z,25.57
2022-08-10T18:40:39.071Z,25.99
2022-08-10T18:44:04.428Z,26.61
2022-08-10T18:46:56.616Z,28.66
2022-08-10T18:49:58.742Z,27.60
2022-08-10T18:52:49.614Z,27.83
2022-08-10T18:55:46.185Z,29.20
2022-08-10T18:58:47.915Z,29.97
2022-08-10T19:02:12.237Z,28.56
2022-08-10T19:05:30.541Z,29.49
2022-08-10T19:08:49.120Z,28.58
2022-08-10T19:12:30.362Z,29.67
2022-08-10T19:15:26.116Z,30.36
2022-08-10T19:18:48.370Z,31.49
2022-08-10T19:21:43.196Z,30.35
2022-08-10T19:24:51.514Z,29.92
2022-08-10T19:28:04.057Z,29.81
2022-08-10T19:31:03.359Z,31.30
2022-08-10T19:34:11.341Z,32.58
2022-08-10T19:37:16.388Z,32.23
2022-08-10T19:40:12.076Z,33.06
2022-08-10T19:43:20.867Z,33.40
2022-08-10T19:46:34.450Z,32.70
2022-08-10T19:49:37.648Z,34.07
2022-08-10T19:52:55.091Z,34.00
2022-08-10T19:55:43.681Z,34.18
2022-08-10T19:59:01.086Z,32.97
2022-08-10T20:01:55.774Z,33.35
2022-08-10T20:04:56.515Z,33.72
2022-08-10T20:07:59.549Z,33.60
2022-08-10T20:10:57.225Z,35.59
2022-08-10T20:13:51.503Z,34.86
2022-08-10T20:16:40.613Z,33.43
2022-08-10T20:19:53.596Z,34.08
2022-08-10T20:23:04.551Z,33.79
2022-08-10T20:25:50.992Z,35.17
2022-08-10T20:28:43.375Z,34.06
2022-08-10T20:31:54.086Z,35.24
2022-08-10T20:34:44.718Z,35.73
2022-08-10T20:37:44.921Z,35.01
2022-08-10T20:40:54.721Z,35.38
2022-08-10T20:43:56.294Z,34.27
2022-08-10T20:46:55.937Z,35.34
2022-08-10T20:49:55.820Z,35.78
2022-08-10T20:52:44.340Z,35.06
2022-08-10T20:55:47.733Z,35.83
2022-08-10T20:59:09.057Z,34.98
2022-08-10T21:02:19.828Z,35.40
2022-08-10T21:05:23.165Z,36.18
2022-08-10T21:08:42.120Z,35.61
2022-08-10T21:11:50.702Z,34.94
2022-08-10T21:15:14.614Z,35.84
2022-08-10T21:21:41.885Z,34.42
2022-08-10T21:24:34.606Z,34.77
2022-08-10T21:25:41.304Z,34.60
2022-08-10T21:27:38.211Z,36.23
2022-08-10T21:30:51.050Z,34.99
2022-08-10T21:34:18.131Z,35.32
2022-08-10T21:37:13.821Z,35.10
2022-08-10T21:40:35.222Z,34.45
2022-08-10T21:43:59.158Z,35.69
2022-08-10T21:47:14.224Z,35.10
2022-08-10T21:50:38.039Z,36.04
2022-08-10T21:53:52.619Z,35.86
2022-08-10T21:57:12.679Z,34.23
2022-08-10T22:00:36.098Z,35.19
2022-08-10T22:03:41.925Z,34.93
2022-08-10T22:06:52.065Z,34.63
2022-08-10T22:10:00.584Z,35.43
2022-08-10T22:13:08.491Z,34.52
2022-08-10T22:16:17.084Z,34.87
2022-08-10T22:19:21.916Z,35.33
2022-08-10T22:22:29.293Z,34.86
2022-08-10T22:25:55.811Z,35.51
2022-08-10T22:29:10.075Z,35.19
2022-08-10T22:32:26.092Z,35.27
2022-08-10T22:35:49.590Z,35.76
2022-08-10T22:40:11.176Z,35.21
2022-08-10T22:43:10.582Z,35.12
2022-08-10T22:46:22.755Z,36.55
2022-08-10T22:49:08.756Z,36.57
2022-08-10T22:52:07.270Z,36.60
2022-08-10T22:55:15.195Z,38.89
2022-08-10T22:58:19.385Z,38.25
2022-08-10T23:01:13.660Z,38.21
2022-08-10T23:04:00.017Z,38.64
2022-08-10T23:06:55.569Z,37.78
2022-08-10T23:09:42.887Z,37.89
2022-08-10T23:12:45.962Z,37.26
2022-08-10T23:15:57.807Z,36.83
2022-08-10T23:19:09.509Z,37.07
2022-08-10T23:22:05.847Z,36.63
2022-08-10T23:24:53.971Z,37.99
2022-08-10T23:27:41.012Z,39.86
2022-08-10T23:30:34.629Z,39.87
2022-08-10T23:33:38.133Z,38.15
2022-08-10T23:36:35.563Z,38.22
2022-08-10T23:39:30.245Z,38.15
2022-08-10T23:42:19.845Z,38.44
2022-08-10T23:45:06.425Z,39.12
2022-08-10T23:47:57.811Z,39.47
2022-08-10T23:50:57.365Z,40.30
2022-08-10T23:53:47.267Z,40.06
2022-08-10T23:56:38.377Z,41.01
2022-08-10T23:59:25.184Z,40.96
